createdAt,value
2019-05-26T00:00:17.663Z,72.62
2019-05-26T00:01:17.660Z,72.52
2019-05-26T00:02:17.661Z,72.52
2019-05-26T00:03:17.638Z,71.91
2019-05-26T00:04:17.626Z,72.82
2019-05-26T00:05:17.609Z,72.41
2019-05-26T00:06:17.604Z,72.82
2019-05-26T00:07:30.132Z,73.23
2019-05-26T00:08:18.584Z,73.13
2019-05-26T00:09:17.575Z,72.52
2019-05-26T00:10:17.562Z,72.82
2019-05-26T00:11:17.547Z,72.62
2019-05-26T00:12:17.571Z,72.72
2019-05-26T00:13:17.522Z,72.21
2019-05-26T00:14:17.512Z,73.23
2019-05-26T00:15:17.511Z,72.58
2019-05-26T00:16:17.501Z,71.97
2019-05-26T00:17:17.520Z,72.38
2019-05-26T00:18:17.487Z,71.56
2019-05-26T00:19:17.465Z,72.08
2019-05-26T00:20:17.451Z,72.17
2019-05-26T00:21:17.497Z,71.56
2019-05-26T00:22:17.451Z,71.56
2019-05-26T00:23:17.418Z,71.53
2019-05-26T00:24:17.414Z,71.53
2019-05-26T00:25:17.409Z,71.06
2019-05-26T00:26:17.388Z,71.06
2019-05-26T00:27:17.401Z,71.67
2019-05-26T00:28:17.398Z,71.67
2019-05-26T00:29:17.349Z,71.56
2019-05-26T00:30:17.347Z,71.56
2019-05-26T00:31:17.326Z,71.36
2019-05-26T00:32:17.355Z,71.67
2019-05-26T00:33:17.316Z,71.97
2019-05-26T00:34:17.300Z,71.87
2019-05-26T00:35:17.293Z,71.67
2019-05-26T00:36:17.281Z,71.77
2019-05-26T00:37:17.300Z,72.08
2019-05-26T00:38:17.263Z,71.36
2019-05-26T00:39:17.250Z,72.48
2019-05-26T00:40:17.232Z,72.31
2019-05-26T00:41:17.224Z,72.79
2019-05-26T00:42:17.232Z,72.41
2019-05-26T00:43:17.203Z,72.72
2019-05-26T00:44:17.192Z,73.03
2019-05-26T00:45:17.180Z,73.23
2019-05-26T00:46:17.166Z,72.82
2019-05-26T00:47:17.180Z,73.13
2019-05-26T00:48:17.155Z,73.23
2019-05-26T00:49:17.141Z,73.03
2019-05-26T00:50:17.129Z,73.03
2019-05-26T00:51:17.117Z,72.82
2019-05-26T00:52:17.141Z,73.43
2019-05-26T00:53:17.121Z,73.54
2019-05-26T00:54:17.082Z,73.43
2019-05-26T00:55:17.074Z,73.33
2019-05-26T00:56:17.074Z,73.88
2019-05-26T00:57:17.077Z,73.47
2019-05-26T00:58:17.051Z,73.88
2019-05-26T00:59:17.042Z,73.98
2019-05-26T01:00:17.023Z,74.08
2019-05-26T01:01:17.017Z,74.29
2019-05-26T01:02:17.133Z,73.98
2019-05-26T01:03:16.986Z,74.29
2019-05-26T01:04:16.982Z,73.67
2019-05-26T01:05:16.974Z,74.08
2019-05-26T01:06:16.960Z,73.98
2019-05-26T01:07:16.989Z,74.08
2019-05-26T01:08:16.935Z,74.32
2019-05-26T01:09:16.918Z,74.32
2019-05-26T01:10:16.913Z,74.42
2019-05-26T01:11:16.923Z,74.59
2019-05-26T01:12:16.917Z,74.63
2019-05-26T01:13:16.883Z,75.13
2019-05-26T01:14:16.904Z,75.44
2019-05-26T01:15:16.863Z,74.93
2019-05-26T01:16:16.854Z,74.73
2019-05-26T01:17:16.857Z,74.73
2019-05-26T01:18:16.829Z,75.04
2019-05-26T01:19:16.823Z,74.93
2019-05-26T01:20:16.809Z,74.83
2019-05-26T01:21:16.795Z,75.04
2019-05-26T01:22:16.925Z,74.83
2019-05-26T01:23:16.778Z,75.04
2019-05-26T01:24:16.775Z,74.93
2019-05-26T01:25:16.763Z,74.93
2019-05-26T01:26:16.742Z,75.24
2019-05-26T01:27:16.753Z,74.93
2019-05-26T01:28:16.723Z,75.17
2019-05-26T01:29:16.716Z,75.13
2019-05-26T01:30:16.715Z,75.17
2019-05-26T01:31:16.708Z,75.37
2019-05-26T01:32:16.697Z,75.37
2019-05-26T01:33:16.668Z,75.24
2019-05-26T01:34:16.661Z,75.24
2019-05-26T01:35:16.669Z,75.54
2019-05-26T01:36:16.642Z,75.58
2019-05-26T01:37:16.649Z,75.58
2019-05-26T01:38:23.666Z,75.78
2019-05-26T01:39:17.600Z,75.78
2019-05-26T01:40:16.598Z,75.99
2019-05-26T01:41:16.589Z,76.19
2019-05-26T01:42:16.616Z,75.99
2019-05-26T01:43:16.593Z,76.19
2019-05-26T01:44:16.552Z,76.09
2019-05-26T01:45:16.537Z,76.23
2019-05-26T01:46:16.553Z,76.64
2019-05-26T01:47:16.543Z,76.64
2019-05-26T01:48:16.534Z,76.64
2019-05-26T01:49:16.494Z,76.53
2019-05-26T01:50:16.487Z,76.64
2019-05-26T01:51:16.476Z,76.84
2019-05-26T01:52:16.481Z,76.94
2019-05-26T01:53:16.508Z,77.04
2019-05-26T01:54:16.446Z,77.04
2019-05-26T01:55:16.433Z,77.45
2019-05-26T01:56:16.419Z,77.25
2019-05-26T01:57:16.431Z,77.15
2019-05-26T01:58:16.398Z,77.15
2019-05-26T01:59:16.402Z,77.25
2019-05-26T02:00:16.387Z,77.25
2019-05-26T02:01:16.367Z,77.01
2019-05-26T02:02:16.355Z,76.94
2019-05-26T02:03:16.366Z,77.11
2019-05-26T02:04:16.346Z,76.90
2019-05-26T02:05:16.334Z,76.94
2019-05-26T02:06:16.324Z,77.04
2019-05-26T02:07:16.300Z,76.94
2019-05-26T02:08:16.324Z,77.04
2019-05-26T02:09:16.283Z,77.04
2019-05-26T02:10:16.285Z,76.74
2019-05-26T02:11:16.257Z,77.49
2019-05-26T02:12:16.243Z,78.07
2019-05-26T02:13:16.253Z,77.66
2019-05-26T02:14:16.231Z,77.25
2019-05-26T02:15:16.211Z,77.15
2019-05-26T02:16:16.208Z,77.25
2019-05-26T02:17:16.191Z,77.25
2019-05-26T02:18:16.200Z,77.45
2019-05-26T02:19:16.175Z,77.86
2019-05-26T02:20:16.167Z,77.25
2019-05-26T02:21:16.150Z,77.45
2019-05-26T02:22:16.153Z,77.25
2019-05-26T02:23:16.166Z,77.04
2019-05-26T02:24:16.117Z,76.70
2019-05-26T02:25:25.225Z,77.01
2019-05-26T02:26:25.247Z,76.90
2019-05-26T02:27:16.090Z,77.11
2019-05-26T02:28:16.090Z,76.70
2019-05-26T02:29:23.377Z,76.50
2019-05-26T02:30:16.063Z,76.60
2019-05-26T02:31:16.062Z,76.60
2019-05-26T02:32:24.816Z,76.60
2019-05-26T02:33:16.047Z,76.50
2019-05-26T02:34:16.014Z,76.60
2019-05-26T02:35:24.290Z,76.70
2019-05-26T02:36:15.994Z,76.50
2019-05-26T02:37:15.984Z,76.60
2019-05-26T02:38:16.002Z,76.40
2019-05-26T02:39:15.973Z,76.50
2019-05-26T02:40:15.998Z,76.60
2019-05-26T02:41:15.954Z,76.36
2019-05-26T02:42:15.928Z,76.50
2019-05-26T02:43:15.956Z,76.60
2019-05-26T02:44:15.908Z,76.40
2019-05-26T02:45:15.910Z,76.70
2019-05-26T02:46:15.883Z,76.40
2019-05-26T02:47:15.879Z,76.90
2019-05-26T02:48:15.934Z,76.81
2019-05-26T02:49:15.856Z,77.31
2019-05-26T02:50:15.863Z,77.15
2019-05-26T02:51:15.845Z,77.45
2019-05-26T02:52:15.836Z,77.42
2019-05-26T02:53:15.840Z,77.97
2019-05-26T02:54:15.798Z,78.38
2019-05-26T02:55:15.793Z,78.72
2019-05-26T02:56:15.814Z,78.20
2019-05-26T02:57:15.775Z,78.52
2019-05-26T02:58:15.799Z,78.52
2019-05-26T02:59:15.742Z,79.33
2019-05-26T03:00:15.732Z,79.68
2019-05-26T03:01:15.731Z,79.47
2019-05-26T03:02:15.715Z,79.57
2019-05-26T03:03:15.725Z,79.43
2019-05-26T03:04:15.758Z,79.06
2019-05-26T03:05:15.677Z,79.33
2019-05-26T03:06:15.686Z,79.23
2019-05-26T03:07:15.660Z,79.27
2019-05-26T03:08:15.670Z,79.57
2019-05-26T03:09:22.470Z,79.57
2019-05-26T03:10:16.642Z,80.08
2019-05-26T03:11:15.619Z,80.08
2019-05-26T03:12:15.612Z,80.29
2019-05-26T03:13:15.627Z,79.88
2019-05-26T03:14:15.591Z,79.88
2019-05-26T03:15:15.584Z,80.08
2019-05-26T03:16:15.560Z,79.98
2019-05-26T03:17:15.552Z,79.78
2019-05-26T03:18:15.569Z,79.88
2019-05-26T03:19:15.532Z,80.19
2019-05-26T03:20:15.538Z,79.88
2019-05-26T03:21:15.518Z,80.19
2019-05-26T03:22:15.497Z,79.98
2019-05-26T03:23:15.566Z,80.39
2019-05-26T03:24:15.542Z,80.29
2019-05-26T03:25:15.476Z,80.19
2019-05-26T03:26:22.736Z,80.80
2019-05-26T03:27:15.450Z,80.49
2019-05-26T03:28:15.469Z,80.60
2019-05-26T03:29:15.431Z,80.80
2019-05-26T03:30:15.474Z,80.60
2019-05-26T03:31:15.411Z,80.69
2019-05-26T03:32:15.394Z,80.69
2019-05-26T03:33:15.424Z,80.80
2019-05-26T03:34:15.442Z,80.90
2019-05-26T03:35:15.360Z,81.10
2019-05-26T03:36:15.357Z,81.31
2019-05-26T03:37:15.362Z,81.82
2019-05-26T03:38:15.332Z,81.41
2019-05-26T03:39:15.324Z,81.62
2019-05-26T03:40:15.299Z,81.82
2019-05-26T03:41:15.301Z,81.72
2019-05-26T03:42:15.315Z,81.72
2019-05-26T03:43:15.312Z,81.10
2019-05-26T03:44:15.258Z,81.21
2019-05-26T03:45:15.254Z,81.72
2019-05-26T03:46:15.246Z,81.65
2019-05-26T03:47:16.847Z,81.76
2019-05-26T03:48:15.258Z,81.96
2019-05-26T03:49:15.211Z,81.96
2019-05-26T03:50:15.210Z,82.17
2019-05-26T03:51:15.190Z,82.07
2019-05-26T03:52:15.189Z,82.27
2019-05-26T03:53:15.193Z,82.17
2019-05-26T03:54:15.161Z,81.96
2019-05-26T03:55:15.151Z,82.17
2019-05-26T03:56:15.137Z,82.17
2019-05-26T03:57:15.122Z,81.96
2019-05-26T03:58:15.149Z,82.17
2019-05-26T03:59:15.106Z,81.76
2019-05-26T04:00:15.094Z,82.17
2019-05-26T04:01:15.114Z,81.96
2019-05-26T04:02:15.101Z,81.96
2019-05-26T04:03:15.058Z,81.93
2019-05-26T04:04:15.095Z,81.65
2019-05-26T04:05:15.047Z,81.76
2019-05-26T04:06:15.038Z,81.86
2019-05-26T04:07:15.027Z,81.76
2019-05-26T04:08:15.011Z,81.86
2019-05-26T04:09:15.016Z,82.17
2019-05-26T04:10:14.983Z,81.96
2019-05-26T04:11:14.977Z,81.96
2019-05-26T04:12:14.982Z,81.72
2019-05-26T04:13:14.965Z,81.65
2019-05-26T04:14:14.971Z,81.76
2019-05-26T04:15:14.940Z,81.76
2019-05-26T04:16:14.915Z,81.93
2019-05-26T04:17:14.908Z,81.62
2019-05-26T04:18:14.901Z,81.62
2019-05-26T04:19:14.907Z,81.93
2019-05-26T04:20:14.885Z,81.62
2019-05-26T04:21:14.860Z,81.62
2019-05-26T04:22:14.856Z,81.72
2019-05-26T04:23:14.848Z,81.62
2019-05-26T04:24:14.883Z,81.82
2019-05-26T04:25:14.829Z,81.21
2019-05-26T04:26:14.824Z,81.21
2019-05-26T04:27:14.807Z,81.21
2019-05-26T04:28:14.798Z,81.72
2019-05-26T04:29:14.912Z,81.62
2019-05-26T04:30:14.770Z,81.82
2019-05-26T04:31:14.780Z,81.41
2019-05-26T04:32:14.747Z,81.01
2019-05-26T04:33:14.733Z,80.69
2019-05-26T04:34:14.797Z,80.80
2019-05-26T04:35:14.717Z,80.80
2019-05-26T04:36:14.708Z,80.69
2019-05-26T04:37:14.700Z,80.56
2019-05-26T04:38:14.704Z,80.49
2019-05-26T04:39:14.688Z,80.46
2019-05-26T04:40:26.716Z,80.49
2019-05-26T04:41:15.658Z,80.15
2019-05-26T04:42:14.642Z,80.76
2019-05-26T04:43:15.295Z,80.25
2019-05-26T04:44:14.667Z,80.46
2019-05-26T04:45:14.622Z,80.35
2019-05-26T04:46:14.620Z,80.56
2019-05-26T04:47:14.595Z,80.46
2019-05-26T04:48:14.588Z,80.11
2019-05-26T04:49:14.594Z,79.80
2019-05-26T04:50:14.562Z,80.21
2019-05-26T04:51:14.555Z,79.70
2019-05-26T04:52:14.533Z,80.01
2019-05-26T04:53:14.529Z,80.11
2019-05-26T04:54:14.546Z,80.11
2019-05-26T04:55:14.506Z,79.60
2019-05-26T04:56:14.498Z,79.91
2019-05-26T04:57:14.497Z,80.32
2019-05-26T04:58:14.470Z,80.01
2019-05-26T04:59:14.479Z,80.21
2019-05-26T05:00:14.527Z,79.91
2019-05-26T05:01:14.453Z,80.01
2019-05-26T05:02:14.426Z,80.11
2019-05-26T05:03:14.529Z,79.77
2019-05-26T05:04:14.422Z,79.77
2019-05-26T05:05:14.398Z,79.46
2019-05-26T05:06:14.394Z,79.46
2019-05-26T05:07:14.378Z,78.95
2019-05-26T05:08:14.364Z,79.25
2019-05-26T05:09:14.378Z,79.32
2019-05-26T05:10:14.361Z,79.22
2019-05-26T05:11:14.331Z,79.43
2019-05-26T05:12:14.329Z,79.12
2019-05-26T05:13:14.317Z,79.12
2019-05-26T05:14:14.319Z,79.12
2019-05-26T05:15:14.301Z,79.32
2019-05-26T05:16:14.287Z,78.61
2019-05-26T05:17:14.277Z,78.61
2019-05-26T05:18:14.272Z,78.37
2019-05-26T05:19:14.287Z,78.88
2019-05-26T05:20:14.237Z,78.37
2019-05-26T05:21:14.226Z,78.77
2019-05-26T05:22:14.210Z,78.16
2019-05-26T05:23:14.207Z,78.33
2019-05-26T05:24:14.218Z,77.51
2019-05-26T05:25:15.370Z,77.62
2019-05-26T05:26:14.180Z,77.31
2019-05-26T05:27:14.172Z,77.00
2019-05-26T05:28:14.147Z,77.07
2019-05-26T05:29:14.155Z,76.56
2019-05-26T05:30:14.124Z,76.25
2019-05-26T05:31:14.117Z,76.42
2019-05-26T05:32:14.112Z,75.95
2019-05-26T05:33:14.100Z,76.12
2019-05-26T05:34:14.189Z,76.01
2019-05-26T05:35:14.077Z,75.81
2019-05-26T05:36:14.065Z,75.57
2019-05-26T05:37:14.066Z,75.60
2019-05-26T05:38:14.054Z,75.47
2019-05-26T05:39:14.063Z,75.06
2019-05-26T05:40:14.018Z,74.86
2019-05-26T05:41:14.026Z,75.16
2019-05-26T05:42:13.997Z,74.76
2019-05-26T05:43:13.990Z,74.86
2019-05-26T05:44:14.010Z,74.86
2019-05-26T05:45:13.968Z,74.35
2019-05-26T05:46:13.957Z,74.41
2019-05-26T05:47:13.970Z,74.01
2019-05-26T05:48:13.932Z,74.01
2019-05-26T05:49:13.964Z,73.40
2019-05-26T05:50:13.908Z,73.30
2019-05-26T05:51:13.902Z,73.30
2019-05-26T05:52:13.904Z,72.86
2019-05-26T05:53:13.885Z,72.75
2019-05-26T05:54:13.913Z,72.75
2019-05-26T05:55:13.868Z,72.55
2019-05-26T05:56:13.847Z,72.65
2019-05-26T05:57:13.842Z,72.52
2019-05-26T05:58:13.841Z,72.25
2019-05-26T05:59:13.870Z,72.31
2019-05-26T06:00:13.812Z,71.80
2019-05-26T06:01:13.798Z,71.70
2019-05-26T06:02:13.784Z,71.47
2019-05-26T06:03:13.772Z,71.16
2019-05-26T06:04:13.787Z,71.47
2019-05-26T06:05:13.752Z,71.16
2019-05-26T06:06:13.742Z,70.86
2019-05-26T06:07:13.736Z,71.50
2019-05-26T06:08:13.721Z,71.26
2019-05-26T06:09:13.750Z,71.06
2019-05-26T06:10:13.712Z,70.75
2019-05-26T06:11:16.813Z,70.45
2019-05-26T06:12:13.679Z,71.16
2019-05-26T06:13:13.664Z,71.06
2019-05-26T06:14:13.696Z,70.75
2019-05-26T06:15:15.649Z,70.25
2019-05-26T06:16:13.634Z,70.82
2019-05-26T06:17:13.629Z,70.35
2019-05-26T06:18:13.624Z,70.72
2019-05-26T06:19:13.630Z,70.11
2019-05-26T06:20:13.593Z,69.50
2019-05-26T06:21:13.580Z,69.70
2019-05-26T06:22:13.572Z,69.09
2019-05-26T06:23:13.561Z,68.79
2019-05-26T06:24:13.581Z,68.59
2019-05-26T06:25:13.536Z,68.38
2019-05-26T06:26:13.524Z,68.69
2019-05-26T06:27:13.526Z,68.55
2019-05-26T06:28:13.505Z,68.45
2019-05-26T06:29:13.540Z,67.64
2019-05-26T06:30:13.480Z,68.05
2019-05-26T06:31:13.474Z,68.05
2019-05-26T06:32:13.673Z,68.55
2019-05-26T06:33:13.450Z,67.54
2019-05-26T06:34:13.469Z,67.54
2019-05-26T06:35:13.444Z,67.54
2019-05-26T06:36:13.437Z,67.50
2019-05-26T06:37:13.420Z,67.30
2019-05-26T06:38:13.394Z,67.30
2019-05-26T06:39:13.416Z,67.71
2019-05-26T06:40:13.382Z,67.07
2019-05-26T06:41:13.372Z,67.38
2019-05-26T06:42:13.420Z,67.27
2019-05-26T06:43:13.340Z,66.46
2019-05-26T06:44:13.353Z,66.86
2019-05-26T06:45:13.327Z,66.86
2019-05-26T06:46:13.310Z,66.56
2019-05-26T06:47:13.299Z,66.63
2019-05-26T06:48:13.291Z,65.82
2019-05-26T06:49:13.298Z,65.42
2019-05-26T06:50:13.268Z,64.88
2019-05-26T06:51:13.274Z,64.67
2019-05-26T06:52:13.258Z,64.54
2019-05-26T06:53:13.231Z,63.83
2019-05-26T06:54:13.261Z,63.50
2019-05-26T06:55:13.216Z,63.70
2019-05-26T06:56:13.314Z,63.70
2019-05-26T06:57:13.198Z,63.70
2019-05-26T06:58:13.186Z,63.67
2019-05-26T06:59:13.169Z,63.70
2019-05-26T07:00:13.187Z,63.90
2019-05-26T07:01:13.150Z,63.60
2019-05-26T07:02:13.144Z,63.70
2019-05-26T07:03:13.144Z,63.90
2019-05-26T07:04:13.112Z,64.21
2019-05-26T07:05:13.139Z,62.99
2019-05-26T07:06:13.096Z,62.49
2019-05-26T07:07:13.086Z,62.86
2019-05-26T07:08:13.125Z,63.37
2019-05-26T07:09:13.082Z,62.84
2019-05-26T07:10:13.084Z,62.43
2019-05-26T07:11:13.051Z,61.92
2019-05-26T07:12:13.028Z,62.73
2019-05-26T07:13:13.031Z,62.73
2019-05-26T07:14:13.016Z,62.33
2019-05-26T07:15:13.025Z,62.12
2019-05-26T07:16:12.984Z,62.43
2019-05-26T07:17:12.972Z,62.02
2019-05-26T07:18:12.964Z,60.68
2019-05-26T07:19:12.968Z,61.72
2019-05-26T07:20:12.968Z,61.49
2019-05-26T07:21:12.942Z,61.19
2019-05-26T07:22:12.922Z,61.69
2019-05-26T07:23:13.171Z,60.78
2019-05-26T07:24:12.902Z,60.55
2019-05-26T07:25:12.925Z,60.68
2019-05-26T07:26:12.890Z,61.19
2019-05-26T07:27:12.869Z,60.45
2019-05-26T07:28:12.859Z,60.45
2019-05-26T07:29:12.848Z,59.74
2019-05-26T07:30:12.866Z,59.74
2019-05-26T07:31:12.827Z,59.11
2019-05-26T07:32:12.818Z,59.18
2019-05-26T07:33:12.803Z,59.28
2019-05-26T07:34:12.793Z,58.67
2019-05-26T07:35:12.820Z,58.87
2019-05-26T07:36:12.793Z,58.78
2019-05-26T07:37:12.770Z,59.08
2019-05-26T07:38:12.788Z,59.28
2019-05-26T07:39:12.747Z,59.58
2019-05-26T07:40:12.743Z,59.48
2019-05-26T07:41:12.731Z,58.34
2019-05-26T07:42:12.712Z,58.14
2019-05-26T07:43:12.698Z,57.23
2019-05-26T07:44:12.715Z,57.23
2019-05-26T07:45:12.804Z,57.03
2019-05-26T07:46:12.772Z,56.81
2019-05-26T07:47:12.690Z,56.81
2019-05-26T07:48:12.655Z,56.30
2019-05-26T07:49:12.643Z,56.10
2019-05-26T07:50:12.705Z,56.60
2019-05-26T07:51:12.618Z,56.60
2019-05-26T07:52:12.655Z,56.52
2019-05-26T07:53:12.600Z,56.12
2019-05-26T07:54:25.285Z,56.83
2019-05-26T07:55:13.590Z,56.43
2019-05-26T07:56:12.559Z,56.40
2019-05-26T07:57:12.583Z,56.50
2019-05-26T07:58:12.542Z,56.23
2019-05-26T07:59:12.551Z,57.03
2019-05-26T08:00:12.558Z,56.43
2019-05-26T08:01:12.539Z,57.03
2019-05-26T08:02:12.543Z,56.81
2019-05-26T08:03:12.523Z,56.30
2019-05-26T08:04:12.475Z,56.70
2019-05-26T08:05:12.579Z,56.81
2019-05-26T08:06:12.455Z,56.17
2019-05-26T08:07:12.449Z,55.29
2019-05-26T08:08:13.605Z,55.69
2019-05-26T08:09:12.422Z,56.70
2019-05-26T08:10:12.428Z,56.27
2019-05-26T08:11:12.410Z,56.68
2019-05-26T08:12:25.104Z,56.48
2019-05-26T08:13:13.376Z,56.27
2019-05-26T08:14:12.371Z,56.57
2019-05-26T08:15:12.389Z,55.57
2019-05-26T08:16:12.355Z,55.54
2019-05-26T08:17:12.338Z,55.84
2019-05-26T08:18:12.371Z,55.77
2019-05-26T08:19:12.328Z,55.26
2019-05-26T08:20:12.369Z,55.16
2019-05-26T08:21:12.425Z,55.87
2019-05-26T08:22:12.289Z,55.74
2019-05-26T08:23:12.275Z,55.14
2019-05-26T08:24:12.322Z,55.14
2019-05-26T08:25:12.246Z,54.96
2019-05-26T08:26:12.318Z,55.64
2019-05-26T08:27:12.244Z,56.45
2019-05-26T08:28:12.255Z,55.54
2019-05-26T08:29:12.226Z,57.76
2019-05-26T08:30:12.217Z,57.45
2019-05-26T08:31:13.461Z,56.35
2019-05-26T08:32:14.913Z,56.17
2019-05-26T08:33:12.236Z,56.68
2019-05-26T08:34:12.153Z,56.68
2019-05-26T08:35:12.181Z,56.45
2019-05-26T08:36:12.157Z,55.34
2019-05-26T08:37:12.135Z,55.64
2019-05-26T08:38:12.115Z,56.35
2019-05-26T08:39:12.102Z,55.91
2019-05-26T08:40:12.149Z,54.71
2019-05-26T08:41:12.111Z,55.11
2019-05-26T08:42:26.224Z,55.01
2019-05-26T08:43:13.060Z,54.21
2019-05-26T08:44:12.042Z,54.71
2019-05-26T08:45:12.051Z,54.08
2019-05-26T08:46:12.033Z,54.08
2019-05-26T08:47:12.017Z,54.41
2019-05-26T08:48:12.025Z,54.30
2019-05-26T08:49:11.988Z,53.40
2019-05-26T08:50:12.022Z,54.71
2019-05-26T08:51:11.979Z,54.50
2019-05-26T08:52:11.966Z,53.90
2019-05-26T08:53:11.944Z,53.70
2019-05-26T08:54:11.937Z,54.41
2019-05-26T08:55:11.939Z,54.48
2019-05-26T08:56:11.932Z,53.78
2019-05-26T08:57:11.900Z,54.28
2019-05-26T08:58:11.919Z,53.27
2019-05-26T08:59:11.880Z,54.28
2019-05-26T09:00:11.917Z,54.38
2019-05-26T09:01:11.862Z,52.97
2019-05-26T09:02:11.864Z,53.47
2019-05-26T09:03:11.838Z,53.45
2019-05-26T09:04:11.829Z,53.75
2019-05-26T09:05:11.838Z,53.42
2019-05-26T09:06:11.818Z,52.22
2019-05-26T09:07:11.794Z,51.71
2019-05-26T09:08:11.782Z,53.02
2019-05-26T09:09:11.787Z,52.72
2019-05-26T09:10:11.790Z,51.81
2019-05-26T09:11:11.760Z,53.14
2019-05-26T09:12:11.756Z,53.02
2019-05-26T09:13:11.733Z,52.01
2019-05-26T09:14:11.726Z,50.78
2019-05-26T09:15:11.720Z,51.29
2019-05-26T09:16:11.723Z,51.29
2019-05-26T09:17:11.706Z,50.89
2019-05-26T09:18:11.681Z,51.09
2019-05-26T09:19:11.775Z,50.89
2019-05-26T09:20:12.167Z,50.89
2019-05-26T09:21:11.663Z,51.09
2019-05-26T09:22:11.631Z,50.89
2019-05-26T09:23:11.633Z,50.89
2019-05-26T09:24:11.609Z,51.06
2019-05-26T09:25:11.617Z,50.66
2019-05-26T09:26:11.611Z,50.43
2019-05-26T09:27:11.585Z,50.53
2019-05-26T09:28:11.568Z,49.33
2019-05-26T09:29:11.559Z,49.22
2019-05-26T09:30:11.549Z,49.53
2019-05-26T09:31:11.645Z,49.30
2019-05-26T09:32:11.536Z,49.01
2019-05-26T09:33:11.528Z,49.13
2019-05-26T09:34:11.581Z,49.33
2019-05-26T09:35:11.495Z,49.53
2019-05-26T09:36:11.601Z,49.43
2019-05-26T09:37:11.477Z,49.65
2019-05-26T09:38:11.470Z,49.55
2019-05-26T09:39:11.457Z,49.25
2019-05-26T09:40:11.447Z,49.45
2019-05-26T09:41:11.452Z,49.45
2019-05-26T09:42:11.424Z,49.85
2019-05-26T09:43:16.161Z,49.45
2019-05-26T09:44:12.395Z,49.83
2019-05-26T09:45:11.387Z,49.85
2019-05-26T09:46:11.393Z,49.55
2019-05-26T09:47:11.367Z,49.53
2019-05-26T09:48:11.357Z,50.13
2019-05-26T09:49:11.349Z,49.10
2019-05-26T09:50:11.349Z,49.01
2019-05-26T09:51:11.369Z,49.01
2019-05-26T09:52:11.324Z,49.21
2019-05-26T09:53:11.302Z,48.88
2019-05-26T09:54:12.698Z,47.97
2019-05-26T09:55:11.281Z,48.58
2019-05-26T09:56:11.302Z,48.66
2019-05-26T09:57:11.265Z,48.16
2019-05-26T09:58:11.272Z,47.35
2019-05-26T09:59:11.242Z,47.55
2019-05-26T10:00:11.253Z,47.85
2019-05-26T10:01:11.253Z,47.63
2019-05-26T10:02:11.217Z,47.35
2019-05-26T10:03:11.198Z,48.05
2019-05-26T10:04:11.184Z,47.55
2019-05-26T10:05:11.184Z,47.75
2019-05-26T10:06:11.199Z,47.45
2019-05-26T10:07:15.668Z,47.55
2019-05-26T10:08:11.140Z,47.53
2019-05-26T10:09:11.134Z,47.63
2019-05-26T10:10:11.128Z,47.23
2019-05-26T10:11:11.129Z,47.00
2019-05-26T10:12:11.101Z,46.81
2019-05-26T10:13:11.104Z,46.33
2019-05-26T10:14:11.076Z,47.41
2019-05-26T10:15:11.072Z,46.81
2019-05-26T10:16:11.093Z,47.63
2019-05-26T10:17:11.073Z,47.13
2019-05-26T10:18:11.046Z,46.83
2019-05-26T10:19:11.074Z,47.43
2019-05-26T10:20:11.021Z,46.70
2019-05-26T10:21:11.023Z,46.61
2019-05-26T10:22:10.994Z,46.61
2019-05-26T10:23:11.003Z,46.61
2019-05-26T10:24:10.973Z,46.00
2019-05-26T10:25:10.972Z,46.38
2019-05-26T10:26:10.994Z,46.08
2019-05-26T10:27:10.955Z,45.86
2019-05-26T10:28:10.963Z,45.88
2019-05-26T10:29:10.929Z,47.19
2019-05-26T10:30:10.921Z,46.68
2019-05-26T10:31:10.928Z,47.00
2019-05-26T10:32:10.896Z,47.41
2019-05-26T10:33:10.897Z,46.88
2019-05-26T10:34:13.680Z,46.48
2019-05-26T10:35:10.868Z,46.88
2019-05-26T10:36:10.871Z,46.78
2019-05-26T10:37:10.853Z,46.61
2019-05-26T10:38:10.821Z,46.68
2019-05-26T10:39:10.831Z,46.58
2019-05-26T10:40:10.810Z,46.18
2019-05-26T10:41:10.935Z,46.88
2019-05-26T10:42:10.789Z,46.41
2019-05-26T10:43:10.788Z,47.31
2019-05-26T10:44:10.759Z,47.31
2019-05-26T10:45:10.750Z,47.41
2019-05-26T10:46:10.783Z,46.98
2019-05-26T10:47:10.728Z,46.70
2019-05-26T10:48:10.727Z,46.70
2019-05-26T10:49:10.718Z,46.48
2019-05-26T10:50:10.709Z,45.98
2019-05-26T10:51:10.706Z,46.28
2019-05-26T10:52:11.520Z,46.26
2019-05-26T10:53:10.667Z,45.04
2019-05-26T10:54:10.672Z,45.31
2019-05-26T10:55:10.645Z,44.51
2019-05-26T10:56:10.660Z,45.12
2019-05-26T10:57:10.627Z,45.01
2019-05-26T10:58:10.620Z,45.12
2019-05-26T10:59:10.637Z,44.71
2019-05-26T11:00:10.599Z,44.42
2019-05-26T11:01:10.625Z,44.92
2019-05-26T11:02:10.578Z,44.71
2019-05-26T11:03:10.571Z,44.71
2019-05-26T11:04:10.707Z,44.42
2019-05-26T11:05:10.551Z,44.32
2019-05-26T11:06:10.585Z,44.62
2019-05-26T11:07:10.519Z,44.32
2019-05-26T11:08:10.503Z,44.71
2019-05-26T11:09:10.505Z,44.92
2019-05-26T11:10:10.490Z,43.90
2019-05-26T11:11:10.497Z,43.77
2019-05-26T11:12:10.474Z,43.67
2019-05-26T11:13:10.456Z,43.79
2019-05-26T11:14:10.446Z,43.65
2019-05-26T11:15:10.451Z,43.25
2019-05-26T11:16:10.473Z,43.67
2019-05-26T11:17:10.418Z,44.39
2019-05-26T11:18:10.403Z,43.70
2019-05-26T11:19:10.397Z,44.82
2019-05-26T11:20:10.432Z,45.21
2019-05-26T11:21:12.403Z,45.12
2019-05-26T11:22:10.364Z,44.62
2019-05-26T11:23:10.379Z,44.29
2019-05-26T11:24:10.349Z,43.79
2019-05-26T11:25:10.354Z,43.77
2019-05-26T11:26:10.354Z,43.79
2019-05-26T11:27:12.590Z,44.32
2019-05-26T11:28:10.303Z,44.01
2019-05-26T11:29:10.301Z,43.79
2019-05-26T11:30:10.279Z,43.90
2019-05-26T11:31:10.280Z,43.25
2019-05-26T11:32:10.258Z,42.93
2019-05-26T11:33:10.256Z,42.73
2019-05-26T11:34:10.276Z,42.10
2019-05-26T11:35:10.228Z,41.97
2019-05-26T11:36:10.249Z,41.06
2019-05-26T11:37:10.198Z,39.89
2019-05-26T11:38:10.195Z,38.75
2019-05-26T11:39:10.187Z,38.57
2019-05-26T11:40:10.175Z,39.92
2019-05-26T11:41:10.182Z,39.11
2019-05-26T11:42:13.418Z,39.29
2019-05-26T11:43:16.740Z,38.34
2019-05-26T11:44:17.911Z,36.93
2019-05-26T11:45:11.135Z,37.11
2019-05-26T11:46:10.183Z,36.93
2019-05-26T11:47:10.120Z,36.53
2019-05-26T11:48:10.096Z,37.54
2019-05-26T11:49:10.094Z,37.94
2019-05-26T11:50:10.078Z,38.57
2019-05-26T11:51:10.097Z,38.81
2019-05-26T11:52:10.064Z,39.34
2019-05-26T11:53:10.059Z,40.74
2019-05-26T11:54:10.032Z,40.86
2019-05-26T11:55:10.026Z,42.21
2019-05-26T11:56:10.027Z,43.03
2019-05-26T11:57:09.998Z,42.83
2019-05-26T11:58:09.994Z,42.95
2019-05-26T11:59:10.000Z,43.15
2019-05-26T12:00:10.841Z,43.75
2019-05-26T12:01:10.014Z,43.13
2019-05-26T12:02:09.975Z,43.13
2019-05-26T12:03:09.939Z,42.91
2019-05-26T12:04:09.940Z,41.89
2019-05-26T12:05:09.927Z,42.67
2019-05-26T12:06:09.904Z,42.40
2019-05-26T12:07:09.922Z,42.49
2019-05-26T12:08:09.892Z,41.77
2019-05-26T12:09:09.875Z,40.95
2019-05-26T12:10:13.636Z,41.03
2019-05-26T12:11:09.865Z,40.26
2019-05-26T12:12:09.874Z,41.08
2019-05-26T12:13:09.841Z,41.77
2019-05-26T12:14:09.838Z,42.37
2019-05-26T12:15:09.817Z,41.77
2019-05-26T12:16:09.811Z,40.86
2019-05-26T12:17:09.820Z,41.85
2019-05-26T12:18:09.780Z,41.77
2019-05-26T12:19:09.780Z,40.98
2019-05-26T12:20:09.761Z,40.66
2019-05-26T12:21:09.760Z,40.46
2019-05-26T12:22:09.771Z,40.24
2019-05-26T12:23:09.803Z,39.94
2019-05-26T12:24:09.720Z,39.32
2019-05-26T12:25:09.710Z,38.77
2019-05-26T12:26:09.717Z,38.29
2019-05-26T12:27:09.697Z,38.51
2019-05-26T12:28:09.732Z,39.53
2019-05-26T12:29:09.671Z,39.53
2019-05-26T12:30:09.660Z,39.14
2019-05-26T12:31:09.652Z,39.94
2019-05-26T12:32:09.656Z,40.16
2019-05-26T12:33:09.665Z,40.48
2019-05-26T12:34:09.653Z,40.48
2019-05-26T12:35:09.611Z,40.40
2019-05-26T12:36:09.597Z,41.19
2019-05-26T12:37:09.630Z,41.08
2019-05-26T12:38:09.578Z,40.78
2019-05-26T12:39:09.580Z,40.88
2019-05-26T12:40:09.581Z,40.28
2019-05-26T12:41:09.554Z,40.88
2019-05-26T12:42:09.564Z,40.78
2019-05-26T12:43:09.530Z,40.16
2019-05-26T12:44:11.031Z,38.21
2019-05-26T12:45:09.525Z,38.73
2019-05-26T12:46:09.500Z,38.73
2019-05-26T12:47:09.506Z,38.03
2019-05-26T12:48:09.496Z,39.54
2019-05-26T12:49:09.473Z,39.14
2019-05-26T12:50:09.467Z,39.14
2019-05-26T12:51:09.461Z,39.34
2019-05-26T12:52:09.476Z,39.92